createdAt,value
2023-11-15T00:00:40.856Z,104490.97
2023-11-15T00:04:11.154Z,104550.00
2023-11-15T00:07:18.131Z,104588.22
2023-11-15T00:10:23.817Z,104633.31
2023-11-15T00:13:27.007Z,104669.78
2023-11-15T00:16:34.701Z,104728.81
2023-11-15T00:20:20.282Z,104762.63
2023-11-15T00:23:30.550Z,104813.84
2023-11-15T00:26:52.609Z,104850.31
2023-11-15T00:30:05.302Z,104898.88
2023-11-15T00:33:34.808Z,104944.88
2023-11-15T00:36:59.793Z,105001.31
2023-11-15T00:40:56.150Z,105044.69
2023-11-15T00:44:10.892Z,105084.63
2023-11-15T00:47:43.608Z,105122.81
2023-11-15T00:51:02.625Z,105161.00
2023-11-15T00:54:10.101Z,105181.78
2023-11-15T00:57:56.585Z,105217.41
2023-11-15T01:01:32.707Z,105252.97
2023-11-15T01:05:17.815Z,105284.22
2023-11-15T01:13:44.159Z,105332.78
2023-11-15T01:17:13.991Z,105370.16
2023-11-15T01:20:17.596Z,105388.38
2023-11-15T01:23:21.534Z,105391.78
2023-11-15T01:26:25.909Z,105412.66
2023-11-15T01:29:32.092Z,105443.03
2023-11-15T01:32:35.322Z,105446.41
2023-11-15T01:35:39.776Z,105467.28
2023-11-15T01:46:37.937Z,105521.91
2023-11-15T01:50:20.785Z,105550.56
2023-11-15T02:04:47.816Z,105649.47
2023-11-15T02:32:39.023Z,105765.00
2023-11-15T02:36:52.581Z,105771.97
2023-11-15T02:41:01.146Z,105789.38
2023-11-15T02:44:29.774Z,105791.97
2023-11-15T02:48:29.895Z,105799.75
2023-11-15T02:52:52.178Z,105804.91
2023-11-15T03:03:38.493Z,105803.16
2023-11-15T03:14:32.381Z,105777.22
2023-11-15T03:18:29.855Z,105765.91
2023-11-15T03:22:17.078Z,105751.97
2023-11-15T03:26:17.487Z,105739.78
2023-11-15T03:30:33.486Z,105741.47
2023-11-15T03:34:17.358Z,105747.44
2023-11-15T03:38:29.320Z,105776.88
2023-11-15T03:42:56.430Z,105769.81
2023-11-15T03:52:08.838Z,105710.34
2023-11-15T03:56:12.262Z,105684.25
2023-11-15T04:00:07.836Z,105680.72
2023-11-15T04:03:31.914Z,105686.88
2023-11-15T04:07:54.177Z,105673.75
2023-11-15T04:11:20.630Z,105665.13
2023-11-15T04:15:10.824Z,105653.81
2023-11-15T04:23:10.392Z,105613.84
2023-11-15T04:26:24.377Z,105593.84
2023-11-15T04:29:29.602Z,105599.13
2023-11-15T04:33:13.591Z,105588.69
2023-11-15T04:37:08.519Z,105542.47
2023-11-15T04:54:47.506Z,105297.25
2023-11-15T04:59:08.274Z,105277.44
2023-11-15T05:07:36.221Z,105154.44
2023-11-15T05:12:17.722Z,105095.50
2023-11-15T05:16:09.629Z,105034.81
2023-11-15T05:20:19.817Z,105008.84
2023-11-15T05:24:07.877Z,104995.00
2023-11-15T05:28:06.866Z,104960.38
2023-11-15T05:41:55.664Z,104751.66
2023-11-15T05:54:52.312Z,104563.00
2023-11-15T05:56:26.968Z,104617.50
2023-11-15T05:58:07.279Z,104528.41
2023-11-15T06:06:18.526Z,104428.91
2023-11-15T06:09:49.101Z,104410.75
2023-11-15T06:13:21.141Z,104389.16
2023-11-15T06:16:54.714Z,104362.31
2023-11-15T06:20:17.307Z,104358.00
2023-11-15T06:23:44.242Z,104339.84
2023-11-15T06:27:05.938Z,104338.97
2023-11-15T06:31:31.625Z,104311.28
2023-11-15T06:34:46.648Z,104306.97
2023-11-15T06:38:16.870Z,104319.06
2023-11-15T06:42:20.065Z,104301.81
2023-11-15T06:50:02.249Z,104326.84
2023-11-15T06:53:27.914Z,104338.09
2023-11-15T06:57:24.201Z,104355.38
2023-11-15T07:01:11.446Z,104380.41
2023-11-15T07:05:27.241Z,104378.69
2023-11-15T07:13:27.899Z,104423.63
2023-11-15T07:16:34.910Z,104447.84
2023-11-15T07:20:12.847Z,104476.31
2023-11-15T07:23:43.467Z,104497.09
2023-11-15T07:27:00.906Z,104523.03
2023-11-15T07:34:05.712Z,104556.72
2023-11-15T07:37:25.307Z,104579.25
2023-11-15T07:40:48.302Z,104603.47
2023-11-15T07:44:19.041Z,104610.41
2023-11-15T07:48:07.836Z,104639.81
2023-11-15T07:56:11.920Z,104639.88
2023-11-15T08:09:56.649Z,104633.91
2023-11-15T08:15:13.184Z,104633.94
2023-11-15T08:18:48.555Z,104615.78
2023-11-15T08:26:53.173Z,104588.97
2023-11-15T08:34:28.704Z,104575.16
2023-11-15T08:43:43.123Z,104544.88
2023-11-15T08:47:27.512Z,104549.19
2023-11-15T08:50:55.497Z,104546.59
2023-11-15T08:59:56.163Z,104520.66
2023-11-15T09:03:13.578Z,104503.34
2023-11-15T09:06:42.879Z,104499.91
2023-11-15T09:14:18.733Z,104489.50
2023-11-15T09:17:26.110Z,104472.22
2023-11-15T09:25:12.818Z,104459.25
2023-11-15T09:29:22.049Z,104448.91
2023-11-15T09:36:51.654Z,104398.72
2023-11-15T09:40:31.311Z,104396.13
2023-11-15T09:44:11.013Z,104368.44
2023-11-15T09:47:21.009Z,104342.47
2023-11-15T09:51:21.663Z,104324.31
2023-11-15T10:02:28.652Z,104296.59
2023-11-15T11:58:57.425Z,104100.94
2023-11-15T12:07:30.734Z,104048.16
2023-11-15T12:11:37.057Z,104029.97
2023-11-15T12:25:09.365Z,103926.97
2023-11-15T12:29:28.612Z,103901.88
2023-11-15T12:34:00.242Z,103888.84
2023-11-15T12:38:20.857Z,103843.91
2023-11-15T13:17:58.781Z,103687.00
2023-11-15T13:33:14.736Z,103661.00
2023-11-15T13:36:57.549Z,103659.16
2023-11-15T13:46:48.568Z,103615.16
2023-11-15T13:55:23.572Z,103605.53
2023-11-15T14:08:56.033Z,103552.56
2023-11-15T14:18:09.854Z,103517.00
2023-11-15T14:21:52.107Z,103485.91
2023-11-15T14:36:30.044Z,103404.44
2023-11-15T14:40:04.382Z,103371.53
2023-11-15T14:43:18.317Z,103366.22
2023-11-15T14:46:27.125Z,103361.06
2023-11-15T14:49:44.570Z,103352.38
2023-11-15T14:53:25.202Z,103335.16
2023-11-15T14:57:05.088Z,103300.50
2023-11-15T15:00:16.926Z,103261.66
2023-11-15T15:03:45.217Z,103222.81
2023-11-15T15:07:04.414Z,103195.28
2023-11-15T15:10:33.748Z,103157.38
2023-11-15T15:13:49.028Z,103146.13
2023-11-15T15:17:21.370Z,103139.19
2023-11-15T15:21:21.886Z,103127.09
2023-11-15T15:24:35.702Z,103120.16
2023-11-15T15:28:05.625Z,103112.47
2023-11-15T15:31:24.006Z,103096.09
2023-11-15T15:39:22.964Z,103097.09
2023-11-15T15:43:46.416Z,103108.38
2023-11-15T15:53:58.034Z,103143.22
2023-11-15T15:57:47.318Z,103186.47
2023-11-15T16:06:20.670Z,103160.28
2023-11-15T16:10:37.241Z,103151.66
2023-11-15T16:14:29.776Z,103144.59
2023-11-15T16:18:14.968Z,103138.84
2023-11-15T16:22:45.008Z,103155.38
2023-11-15T16:27:37.531Z,103163.53
2023-11-15T16:31:44.081Z,103185.28
2023-11-15T16:40:54.100Z,103239.97
2023-11-15T16:44:45.870Z,103261.72
2023-11-15T16:48:49.996Z,103278.47
2023-11-15T16:52:35.928Z,103312.31
2023-11-15T17:01:26.543Z,103391.19
2023-11-15T17:10:01.392Z,103472.53
2023-11-15T17:13:35.718Z,103496.75
2023-11-15T17:16:59.059Z,103524.53
2023-11-15T17:21:15.765Z,103551.34
2023-11-15T17:25:19.800Z,103594.50
2023-11-15T17:29:52.939Z,103619.63
2023-11-15T17:33:20.741Z,103652.50
2023-11-15T17:36:36.583Z,103673.25
2023-11-15T17:40:19.132Z,103700.03
2023-11-15T17:43:38.914Z,103719.03
2023-11-15T17:46:57.512Z,103744.94
2023-11-15T17:50:27.522Z,103756.16
2023-11-15T17:53:38.233Z,103783.75
2023-11-15T17:56:48.985Z,103812.19
2023-11-15T17:59:58.198Z,103840.66
2023-11-15T18:03:05.738Z,103867.38
2023-11-15T18:06:22.946Z,103888.94
2023-11-15T18:09:36.561Z,103911.34
2023-11-15T18:12:41.009Z,103938.94
2023-11-15T18:15:48.321Z,103966.53
2023-11-15T18:18:59.669Z,103975.09
2023-11-15T18:22:06.220Z,103993.19
2023-11-15T18:25:29.177Z,104006.13
2023-11-15T18:28:39.250Z,104031.13
2023-11-15T18:31:43.306Z,104047.47
2023-11-15T18:34:51.467Z,104065.59
2023-11-15T18:38:05.411Z,104082.81
2023-11-15T18:41:12.432Z,104105.25
2023-11-15T18:44:21.033Z,104132.00
2023-11-15T18:47:24.925Z,104152.66
2023-11-15T18:50:32.780Z,104167.31
2023-11-15T18:53:38.690Z,104188.00
2023-11-15T18:56:57.423Z,104205.25
2023-11-15T19:35:37.350Z,104462.38
2023-11-15T19:38:49.790Z,104491.75
2023-11-15T19:41:58.858Z,104503.88
2023-11-15T19:45:05.497Z,104528.97
2023-11-15T19:48:13.653Z,104554.88
2023-11-15T19:51:37.025Z,104567.84
2023-11-15T19:55:04.606Z,104591.19
2023-11-15T19:58:10.425Z,104608.44
2023-11-15T20:01:25.988Z,104618.78
2023-11-15T20:04:37.135Z,104636.13
2023-11-15T20:07:51.219Z,104643.03
2023-11-15T20:11:00.187Z,104658.53
2023-11-15T20:14:06.610Z,104664.53
2023-11-15T20:17:11.616Z,104677.59
2023-11-15T20:20:30.195Z,104673.19
2023-11-15T20:23:35.472Z,104690.56
2023-11-15T20:26:40.187Z,104697.47
2023-11-15T20:30:04.777Z,104715.66
2023-11-15T20:33:15.461Z,104729.53
2023-11-15T20:36:19.686Z,104735.56
2023-11-15T20:39:27.913Z,104737.31
2023-11-15T20:42:36.731Z,104741.59
2023-11-15T20:46:05.017Z,104748.56
2023-11-15T20:49:24.008Z,104742.53
2023-11-15T20:52:30.860Z,104746.00
2023-11-15T20:55:44.552Z,104755.44
2023-11-15T20:59:42.406Z,104762.31
2023-11-15T21:02:55.421Z,104770.03
2023-11-15T21:06:09.224Z,104770.00
2023-11-15T21:09:23.978Z,104790.78
2023-11-15T21:12:36.571Z,104797.78
2023-11-15T21:15:43.140Z,104799.59
2023-11-15T21:19:15.655Z,104815.13
2023-11-15T21:23:07.538Z,104822.94
2023-11-15T21:26:20.415Z,104833.25
2023-11-15T21:29:53.216Z,104852.31
2023-11-15T21:33:01.526Z,104862.69
2023-11-15T21:36:13.340Z,104862.69
2023-11-15T21:39:45.267Z,104884.25
2023-11-15T21:42:58.562Z,104893.78
2023-11-15T21:46:18.413Z,104894.63
2023-11-15T21:49:35.792Z,104911.88
2023-11-15T21:52:56.453Z,104936.16
2023-11-15T21:56:40.229Z,104942.13
2023-11-15T22:00:17.601Z,104974.97
2023-11-15T22:42:38.907Z,105411.25
2023-11-15T23:08:26.509Z,105728.34
2023-11-15T23:17:43.976Z,105819.13
2023-11-15T23:21:50.955Z,105864.16
2023-11-15T23:26:05.757Z,105896.19
2023-11-15T23:29:24.517Z,105928.19
2023-11-15T23:33:25.840Z,105948.91
2023-11-15T23:41:45.669Z,106004.19
2023-11-15T23:50:11.539Z,106050.03
2023-11-15T23:54:17.984Z,106054.28
